createdAt,value
2023-08-08T00:02:20.309Z,29.02
2023-08-08T00:04:53.109Z,29.00
2023-08-08T00:07:24.028Z,28.99
2023-08-08T00:09:56.455Z,29.01
2023-08-08T00:12:27.762Z,29.02
2023-08-08T00:14:59.010Z,29.07
2023-08-08T00:17:29.894Z,29.17
2023-08-08T00:20:00.935Z,29.12
2023-08-08T00:22:32.008Z,29.24
2023-08-08T00:25:04.792Z,29.20
2023-08-08T00:27:35.527Z,29.29
2023-08-08T00:30:07.436Z,29.35
2023-08-08T00:32:38.247Z,29.38
2023-08-08T00:35:09.587Z,29.38
2023-08-08T00:37:40.374Z,29.42
2023-08-08T00:40:13.399Z,29.45
2023-08-08T00:42:44.201Z,29.48
2023-08-08T00:45:14.917Z,29.51
2023-08-08T00:47:45.519Z,29.50
2023-08-08T00:50:16.544Z,29.58
2023-08-08T00:52:47.982Z,29.59
2023-08-08T00:55:21.579Z,29.61
2023-08-08T00:57:52.485Z,29.63
2023-08-08T01:00:23.520Z,29.65
2023-08-08T01:02:54.445Z,29.67
2023-08-08T01:05:25.763Z,29.72
2023-08-08T01:07:59.298Z,29.79
2023-08-08T01:10:35.492Z,29.78
2023-08-08T01:13:08.984Z,29.81
2023-08-08T01:15:40.737Z,29.89
2023-08-08T01:18:12.423Z,29.93
2023-08-08T01:20:43.231Z,29.99
2023-08-08T01:23:17.799Z,30.06
2023-08-08T01:25:50.776Z,30.11
2023-08-08T01:28:25.252Z,30.04
2023-08-08T01:30:58.049Z,30.08
2023-08-08T01:33:29.228Z,30.13
2023-08-08T01:36:16.656Z,30.17
2023-08-08T01:38:49.899Z,30.12
2023-08-08T01:41:23.592Z,30.31
2023-08-08T01:43:54.637Z,30.32
2023-08-08T01:46:27.532Z,30.30
2023-08-08T01:48:58.448Z,30.37
2023-08-08T01:51:30.309Z,30.37
2023-08-08T01:54:01.320Z,30.33
2023-08-08T01:56:34.136Z,30.44
2023-08-08T01:59:05.038Z,30.49
2023-08-08T02:01:35.812Z,30.52
2023-08-08T02:04:07.219Z,30.49
2023-08-08T02:06:38.098Z,30.48
2023-08-08T02:09:08.922Z,30.53
2023-08-08T02:11:42.144Z,30.67
2023-08-08T02:14:13.074Z,30.68
2023-08-08T02:16:45.076Z,30.60
2023-08-08T02:19:17.390Z,30.67
2023-08-08T02:21:48.432Z,30.59
2023-08-08T02:24:19.365Z,30.62
2023-08-08T02:26:52.162Z,30.68
2023-08-08T02:29:23.775Z,30.73
2023-08-08T02:31:54.601Z,30.87
2023-08-08T02:34:25.476Z,30.87
2023-08-08T02:36:56.218Z,30.89
2023-08-08T02:39:27.060Z,30.93
2023-08-08T02:41:59.808Z,31.09
2023-08-08T02:44:31.055Z,31.14
2023-08-08T02:47:01.926Z,31.21
2023-08-08T02:49:32.643Z,31.21
2023-08-08T02:52:03.484Z,31.23
2023-08-08T02:54:34.172Z,31.29
2023-08-08T02:57:07.412Z,31.34
2023-08-08T02:59:38.247Z,31.43
2023-08-08T03:02:09.381Z,31.37
2023-08-08T03:04:40.241Z,31.43
2023-08-08T03:07:11.428Z,31.53
2023-08-08T03:09:42.169Z,31.63
2023-08-08T03:12:14.923Z,31.63
2023-08-08T03:14:45.617Z,31.70
2023-08-08T03:17:16.554Z,31.65
2023-08-08T03:19:47.616Z,31.62
2023-08-08T03:22:18.489Z,31.69
2023-08-08T03:24:49.521Z,31.80
2023-08-08T03:27:21.943Z,31.84
2023-08-08T03:29:53.618Z,31.82
2023-08-08T03:32:24.854Z,31.93
2023-08-08T03:34:55.996Z,31.90
2023-08-08T03:37:26.926Z,32.12
2023-08-08T03:39:57.821Z,32.10
2023-08-08T03:42:30.503Z,32.01
2023-08-08T03:45:01.335Z,32.16
2023-08-08T03:47:32.582Z,32.29
2023-08-08T03:50:03.624Z,32.32
2023-08-08T03:52:37.082Z,32.32
2023-08-08T03:55:08.537Z,32.33
2023-08-08T03:57:41.381Z,32.47
2023-08-08T04:00:14.140Z,32.47
2023-08-08T04:02:45.184Z,32.49
2023-08-08T04:05:16.136Z,32.57
2023-08-08T04:07:47.585Z,32.63
2023-08-08T04:10:18.443Z,32.60
2023-08-08T04:12:51.394Z,32.62
2023-08-08T04:15:22.271Z,32.74
2023-08-08T04:17:53.443Z,32.81
2023-08-08T04:20:24.461Z,32.90
2023-08-08T04:22:55.503Z,32.90
2023-08-08T04:25:26.499Z,32.82
2023-08-08T04:28:09.727Z,32.89
2023-08-08T04:30:41.321Z,32.90
2023-08-08T04:33:12.469Z,32.99
2023-08-08T04:35:43.820Z,32.98
2023-08-08T04:38:18.415Z,33.08
2023-08-08T04:40:53.880Z,33.03
2023-08-08T04:43:36.761Z,33.19
2023-08-08T04:46:07.518Z,33.20
2023-08-08T04:48:40.617Z,33.13
2023-08-08T04:51:12.185Z,33.10
2023-08-08T04:53:43.121Z,33.20
2023-08-08T04:56:13.895Z,33.29
2023-08-08T04:58:46.371Z,33.37
2023-08-08T05:01:18.333Z,33.32
2023-08-08T05:03:49.449Z,33.33
2023-08-08T05:06:20.310Z,33.25
2023-08-08T05:08:53.362Z,33.42
2023-08-08T05:11:24.192Z,33.44
2023-08-08T05:13:56.818Z,33.37
2023-08-08T05:16:27.836Z,33.39
2023-08-08T05:18:58.910Z,33.41
2023-08-08T05:21:29.664Z,33.43
2023-08-08T05:24:00.675Z,33.41
2023-08-08T05:26:31.494Z,33.59
2023-08-08T05:29:05.067Z,33.69
2023-08-08T05:31:36.257Z,33.69
2023-08-08T05:34:07.095Z,33.72
2023-08-08T05:36:37.843Z,33.67
2023-08-08T05:39:09.639Z,33.77
2023-08-08T05:41:40.519Z,33.66
2023-08-08T05:44:12.999Z,33.73
2023-08-08T05:46:42.972Z,33.74
2023-08-08T05:49:13.901Z,33.89
2023-08-08T05:51:44.783Z,33.78
2023-08-08T05:54:15.675Z,33.86
2023-08-08T05:56:46.627Z,33.74
2023-08-08T05:59:19.642Z,33.72
2023-08-08T06:01:50.495Z,33.71
2023-08-08T06:04:21.282Z,33.78
2023-08-08T06:06:51.966Z,33.85
2023-08-08T06:09:22.992Z,33.79
2023-08-08T06:11:53.899Z,34.01
2023-08-08T06:14:26.566Z,34.00
2023-08-08T06:16:57.199Z,34.00
2023-08-08T06:19:28.245Z,34.08
2023-08-08T06:21:59.938Z,34.09
2023-08-08T06:24:31.146Z,34.24
2023-08-08T06:27:02.054Z,34.32
2023-08-08T06:29:40.467Z,34.38
2023-08-08T06:32:16.772Z,34.37
2023-08-08T06:34:55.295Z,34.42
2023-08-08T06:37:25.707Z,34.41
2023-08-08T06:39:56.881Z,34.52
2023-08-08T06:50:44.493Z,34.59
2023-08-08T07:57:43.353Z,34.00
2023-08-08T08:00:15.681Z,34.16
2023-08-08T08:02:47.629Z,34.06
2023-08-08T08:05:19.028Z,34.05
2023-08-08T08:07:50.682Z,34.02
2023-08-08T08:10:21.471Z,34.02
2023-08-08T08:13:00.494Z,33.98
2023-08-08T08:15:33.373Z,33.97
2023-08-08T08:18:04.662Z,33.92
2023-08-08T08:20:35.354Z,33.96
2023-08-08T08:23:06.559Z,33.92
2023-08-08T08:25:37.764Z,33.71
2023-08-08T08:28:10.835Z,33.76
2023-08-08T08:30:41.808Z,33.88
2023-08-08T08:33:13.020Z,33.75
2023-08-08T08:35:44.264Z,33.84
2023-08-08T08:38:15.475Z,33.76
2023-08-08T08:40:48.653Z,33.67
2023-08-08T08:43:21.300Z,33.72
2023-08-08T08:45:55.279Z,33.70
2023-08-08T08:48:26.011Z,33.60
2023-08-08T08:50:56.762Z,33.60
2023-08-08T08:53:30.041Z,33.57
2023-08-08T08:56:00.900Z,33.38
2023-08-08T08:58:33.377Z,33.19
2023-08-08T09:01:03.257Z,33.22
2023-08-08T09:03:34.229Z,33.04
2023-08-08T09:06:07.450Z,33.03
2023-08-08T09:08:38.283Z,32.92
2023-08-08T09:11:09.140Z,32.97
2023-08-08T09:13:43.095Z,32.94
2023-08-08T09:16:15.260Z,32.96
2023-08-08T09:18:50.347Z,33.00
2023-08-08T09:21:21.942Z,33.01
2023-08-08T09:23:52.730Z,33.02
2023-08-08T09:26:23.659Z,32.99
2023-08-08T09:28:56.575Z,32.93
2023-08-08T09:31:28.818Z,32.91
2023-08-08T09:34:00.634Z,32.96
2023-08-08T09:36:33.106Z,32.97
2023-08-08T09:39:05.973Z,32.90
2023-08-08T09:41:36.925Z,32.70
2023-08-08T09:44:12.215Z,32.56
2023-08-08T09:46:43.410Z,32.62
2023-08-08T09:49:15.068Z,32.50
2023-08-08T09:51:46.609Z,32.51
2023-08-08T09:54:17.926Z,32.36
2023-08-08T09:56:49.003Z,32.30
2023-08-08T09:59:25.110Z,32.20
2023-08-08T10:01:56.473Z,32.02
2023-08-08T10:04:28.021Z,31.93
2023-08-08T10:06:58.868Z,32.00
2023-08-08T10:09:30.480Z,31.96
2023-08-08T10:12:02.121Z,31.91
2023-08-08T10:14:35.797Z,31.87
2023-08-08T10:17:07.414Z,31.96
2023-08-08T10:19:38.892Z,31.73
2023-08-08T10:22:09.956Z,31.72
2023-08-08T10:24:41.263Z,31.68
2023-08-08T10:27:11.905Z,31.68
2023-08-08T10:29:44.576Z,31.65
2023-08-08T10:32:15.343Z,31.60
2023-08-08T10:34:47.651Z,31.57
2023-08-08T10:37:23.160Z,31.57
2023-08-08T10:39:57.547Z,31.59
2023-08-08T10:42:30.240Z,31.66
2023-08-08T10:45:07.160Z,31.45
2023-08-08T10:47:39.047Z,31.36
2023-08-08T10:50:11.933Z,31.41
2023-08-08T10:52:54.721Z,31.37
2023-08-08T10:55:28.168Z,31.25
2023-08-08T10:58:00.620Z,31.25
2023-08-08T11:00:34.848Z,31.29
2023-08-08T11:03:07.525Z,31.16
2023-08-08T11:05:39.519Z,31.21
2023-08-08T11:08:11.213Z,31.40
2023-08-08T11:10:45.112Z,31.18
2023-08-08T11:13:16.108Z,31.13
2023-08-08T11:15:48.985Z,31.05
2023-08-08T11:18:20.308Z,31.04
2023-08-08T11:21:02.233Z,30.99
2023-08-08T11:23:41.561Z,30.98
2023-08-08T11:28:53.880Z,30.94
2023-08-08T11:31:27.767Z,30.97
2023-08-08T11:33:59.336Z,31.03
2023-08-08T11:36:30.499Z,30.92
2023-08-08T11:39:03.328Z,30.93
2023-08-08T11:41:34.385Z,30.86
2023-08-08T11:44:06.683Z,30.82
2023-08-08T11:46:46.194Z,30.79
2023-08-08T11:49:18.452Z,30.80
2023-08-08T11:51:49.624Z,30.81
2023-08-08T11:54:20.440Z,30.78
2023-08-08T11:56:51.406Z,30.77
2023-08-08T11:59:23.476Z,30.72
2023-08-08T12:01:56.046Z,30.73
2023-08-08T12:04:28.034Z,30.71
2023-08-08T12:07:06.009Z,30.71
2023-08-08T12:09:38.293Z,30.75
2023-08-08T12:12:10.996Z,30.73
2023-08-08T12:14:51.435Z,30.84
2023-08-08T12:17:27.724Z,30.78
2023-08-08T12:19:58.942Z,30.73
2023-08-08T12:22:30.424Z,30.81
2023-08-08T12:25:02.752Z,30.76
2023-08-08T12:27:33.952Z,30.72
2023-08-08T12:30:04.894Z,30.66
2023-08-08T12:32:37.506Z,30.68
2023-08-08T12:35:09.183Z,30.68
2023-08-08T12:37:40.939Z,30.69
2023-08-08T12:40:12.775Z,30.72
2023-08-08T12:42:44.386Z,30.71
2023-08-08T12:45:16.098Z,30.68
2023-08-08T12:47:48.734Z,30.67
2023-08-08T12:50:20.079Z,30.67
2023-08-08T12:52:50.903Z,30.67
2023-08-08T12:55:22.360Z,30.69
2023-08-08T12:57:53.391Z,30.67
2023-08-08T13:00:24.720Z,30.70
2023-08-08T13:02:57.285Z,30.67
2023-08-08T13:05:29.491Z,30.66
2023-08-08T13:08:00.190Z,30.66
2023-08-08T13:10:31.846Z,30.65
2023-08-08T13:13:02.958Z,30.67
2023-08-08T13:15:33.564Z,30.67
2023-08-08T13:18:06.538Z,30.66
2023-08-08T13:20:37.380Z,30.67
2023-08-08T13:23:09.519Z,30.65
2023-08-08T13:25:40.223Z,30.65
2023-08-08T13:28:11.425Z,30.67
2023-08-08T13:30:44.008Z,30.67
2023-08-08T13:33:16.431Z,30.66
2023-08-08T13:35:47.008Z,30.65
2023-08-08T13:38:18.406Z,30.65
2023-08-08T13:40:50.675Z,30.66
2023-08-08T13:43:21.559Z,30.64
2023-08-08T13:45:52.876Z,30.64
2023-08-08T13:48:25.809Z,30.64
2023-08-08T13:50:57.352Z,30.64
2023-08-08T13:53:28.198Z,30.65
2023-08-08T13:55:59.510Z,30.64
2023-08-08T13:58:30.629Z,30.63
2023-08-08T14:01:01.521Z,30.63
2023-08-08T14:03:34.505Z,30.64
2023-08-08T14:06:05.595Z,30.65
2023-08-08T14:08:36.506Z,30.63
2023-08-08T14:11:07.373Z,30.63
2023-08-08T14:13:39.900Z,30.63
2023-08-08T14:16:09.953Z,30.63
2023-08-08T14:18:42.590Z,30.63
2023-08-08T14:21:14.315Z,30.63
2023-08-08T14:23:46.924Z,30.62
2023-08-08T14:26:16.913Z,30.63
2023-08-08T14:28:47.731Z,30.60
2023-08-08T14:31:18.789Z,30.57
2023-08-08T14:33:51.717Z,30.54
2023-08-08T14:36:22.538Z,30.50
2023-08-08T14:38:53.952Z,30.45
2023-08-08T14:41:24.824Z,30.43
2023-08-08T14:43:55.516Z,30.40
2023-08-08T14:46:26.186Z,30.37
2023-08-08T14:48:59.736Z,30.40
2023-08-08T14:51:30.627Z,30.35
2023-08-08T14:54:01.790Z,30.33
2023-08-08T14:56:32.772Z,30.27
2023-08-08T14:59:03.447Z,30.22
2023-08-08T15:01:34.188Z,30.16
2023-08-08T15:04:07.350Z,30.17
2023-08-08T15:06:39.187Z,30.15
2023-08-08T15:09:12.467Z,30.10
2023-08-08T15:11:43.314Z,30.07
2023-08-08T15:14:14.094Z,30.07
2023-08-08T15:16:45.844Z,30.02
2023-08-08T15:19:19.726Z,30.03
2023-08-08T15:21:50.495Z,30.03
2023-08-08T15:24:21.228Z,30.02
2023-08-08T15:26:51.972Z,30.02
2023-08-08T15:29:22.757Z,30.01
2023-08-08T15:31:53.484Z,30.03
2023-08-08T15:34:26.063Z,30.02
2023-08-08T15:37:00.934Z,30.03
2023-08-08T15:39:32.491Z,30.03
2023-08-08T15:42:03.546Z,30.02
2023-08-08T15:44:34.368Z,30.01
2023-08-08T15:47:05.445Z,30.01
2023-08-08T15:49:38.350Z,29.99
2023-08-08T15:52:09.343Z,29.96
2023-08-08T15:54:40.121Z,29.96
2023-08-08T15:57:10.798Z,29.96
2023-08-08T15:59:44.870Z,29.95
2023-08-08T16:02:17.211Z,29.91
2023-08-08T16:04:52.027Z,29.93
2023-08-08T16:07:23.053Z,30.03
2023-08-08T16:09:53.533Z,29.99
2023-08-08T16:12:24.161Z,29.98
2023-08-08T16:14:54.739Z,30.08
2023-08-08T16:17:25.539Z,30.04
2023-08-08T16:19:58.512Z,30.03
2023-08-08T16:22:29.369Z,30.04
2023-08-08T16:25:00.296Z,30.06
2023-08-08T16:27:31.090Z,30.06
2023-08-08T16:30:02.009Z,30.05
2023-08-08T16:32:33.277Z,30.06
2023-08-08T16:35:06.064Z,30.14
2023-08-08T16:37:37.905Z,30.13
2023-08-08T16:40:10.441Z,30.14
2023-08-08T16:42:41.268Z,30.13
2023-08-08T16:45:12.935Z,30.13
2023-08-08T16:47:43.702Z,30.11
2023-08-08T16:50:16.438Z,30.08
2023-08-08T16:52:47.192Z,30.13
2023-08-08T16:55:18.217Z,30.14
2023-08-08T16:57:48.978Z,30.13
2023-08-08T17:00:20.523Z,30.12
2023-08-08T17:02:51.598Z,30.07
2023-08-08T17:05:24.427Z,30.07
2023-08-08T17:07:55.371Z,30.07
2023-08-08T17:10:27.020Z,30.05
2023-08-08T17:12:58.003Z,30.06
2023-08-08T17:15:28.843Z,30.06
2023-08-08T17:17:59.512Z,30.03
2023-08-08T17:20:35.746Z,30.05
2023-08-08T17:23:07.050Z,30.04
2023-08-08T17:25:38.189Z,30.03
2023-08-08T17:28:09.221Z,30.03
2023-08-08T17:30:40.309Z,30.04
2023-08-08T17:33:11.379Z,30.02
2023-08-08T17:35:45.134Z,30.01
2023-08-08T17:38:16.867Z,30.01
2023-08-08T17:40:48.214Z,30.02
2023-08-08T17:43:19.457Z,30.00
2023-08-08T17:45:51.871Z,29.99
2023-08-08T17:48:23.032Z,30.00
2023-08-08T17:50:57.857Z,30.01
2023-08-08T17:53:31.611Z,29.97
2023-08-08T17:56:02.602Z,30.02
2023-08-08T17:58:33.751Z,30.01
2023-08-08T18:01:04.961Z,30.01
2023-08-08T18:03:35.902Z,29.93
2023-08-08T18:06:08.869Z,29.99
2023-08-08T18:08:39.954Z,30.05
2023-08-08T18:11:11.419Z,29.99
2023-08-08T18:13:43.127Z,29.98
2023-08-08T18:16:14.284Z,29.93
2023-08-08T18:18:45.396Z,30.03
2023-08-08T18:21:18.336Z,29.95
2023-08-08T18:23:49.320Z,29.89
2023-08-08T18:26:20.322Z,29.88
2023-08-08T18:28:52.290Z,29.87
2023-08-08T18:31:23.613Z,29.87
2023-08-08T18:34:01.377Z,29.85
2023-08-08T18:36:36.121Z,29.84
2023-08-08T18:39:08.900Z,29.81
2023-08-08T18:41:40.181Z,29.81
2023-08-08T18:44:11.133Z,29.79
2023-08-08T18:46:43.706Z,29.76
2023-08-08T18:49:15.406Z,29.78
2023-08-08T18:51:48.265Z,29.76
2023-08-08T18:54:19.379Z,29.77
2023-08-08T18:56:50.417Z,29.78
2023-08-08T18:59:21.470Z,29.74
2023-08-08T19:01:52.592Z,29.73
2023-08-08T19:04:24.532Z,29.73
2023-08-08T19:06:57.197Z,29.72
2023-08-08T19:09:27.089Z,29.72
2023-08-08T19:11:57.989Z,29.69
2023-08-08T19:14:29.380Z,29.64
2023-08-08T19:17:00.281Z,29.65
2023-08-08T19:19:31.224Z,29.72
2023-08-08T19:22:03.893Z,29.76
2023-08-08T19:24:33.716Z,29.67
2023-08-08T19:27:04.565Z,29.62
2023-08-08T19:29:35.501Z,29.61
2023-08-08T19:32:06.851Z,29.63
2023-08-08T19:34:38.013Z,29.61
2023-08-08T19:37:11.074Z,29.59
2023-08-08T19:39:42.628Z,29.61
2023-08-08T19:42:14.028Z,29.61
2023-08-08T19:44:45.119Z,29.61
2023-08-08T19:47:16.171Z,29.59
2023-08-08T19:49:48.129Z,29.57
2023-08-08T19:52:21.607Z,29.59
2023-08-08T19:54:55.071Z,29.59
2023-08-08T19:57:26.152Z,29.59
2023-08-08T19:59:57.201Z,29.56
2023-08-08T20:02:28.272Z,29.56
2023-08-08T20:04:59.381Z,29.58
2023-08-08T20:07:32.131Z,29.54
2023-08-08T20:10:04.282Z,29.54
2023-08-08T20:12:35.368Z,29.54
2023-08-08T20:15:06.936Z,29.52
2023-08-08T20:17:38.121Z,29.54
2023-08-08T20:20:09.940Z,29.54
2023-08-08T20:22:42.910Z,29.53
2023-08-08T20:25:14.878Z,29.52
2023-08-08T20:27:46.191Z,29.55
2023-08-08T20:30:17.163Z,29.54
2023-08-08T20:32:48.264Z,29.54
2023-08-08T20:35:19.453Z,29.53
2023-08-08T20:37:52.329Z,29.52
2023-08-08T20:40:24.104Z,29.53
2023-08-08T20:42:54.996Z,29.51
2023-08-08T20:45:25.914Z,29.50
2023-08-08T20:47:56.973Z,29.51
2023-08-08T20:50:28.219Z,29.50
2023-08-08T20:53:00.914Z,29.52
2023-08-08T20:55:31.483Z,29.52
2023-08-08T20:58:05.395Z,29.52
2023-08-08T21:00:35.995Z,29.48
2023-08-08T21:03:06.944Z,29.47
2023-08-08T21:05:37.807Z,29.47
2023-08-08T21:08:10.207Z,29.47
2023-08-08T21:10:40.797Z,29.45
2023-08-08T21:13:11.550Z,29.45
2023-08-08T21:15:42.144Z,29.43
2023-08-08T21:18:12.806Z,29.43
2023-08-08T21:20:43.539Z,29.43
2023-08-08T21:23:15.945Z,29.42
2023-08-08T21:25:46.574Z,29.42
2023-08-08T21:28:17.183Z,29.43
2023-08-08T21:30:48.088Z,29.42
2023-08-08T21:33:18.829Z,29.39
2023-08-08T21:35:49.615Z,29.38
2023-08-08T21:38:22.431Z,29.41
2023-08-08T21:40:53.942Z,29.38
2023-08-08T21:43:24.836Z,29.37
2023-08-08T21:45:55.820Z,29.36
2023-08-08T21:48:26.986Z,29.34
2023-08-08T21:50:59.740Z,29.31
2023-08-08T21:53:32.417Z,29.29
2023-08-08T21:56:03.670Z,29.28
2023-08-08T21:58:34.599Z,29.27
2023-08-08T22:01:05.251Z,29.27
2023-08-08T22:03:35.775Z,29.27
2023-08-08T22:06:06.394Z,29.24
2023-08-08T22:08:38.672Z,29.25
2023-08-08T22:11:09.932Z,29.23
2023-08-08T22:13:40.744Z,29.21
2023-08-08T22:16:11.345Z,29.21
2023-08-08T22:18:42.032Z,29.21
2023-08-08T22:21:12.629Z,29.20
2023-08-08T22:23:44.964Z,29.17
2023-08-08T22:26:15.599Z,29.15
2023-08-08T22:28:46.840Z,29.14
2023-08-08T22:31:17.300Z,29.15
2023-08-08T22:33:47.895Z,29.14
2023-08-08T22:36:18.491Z,29.14
2023-08-08T22:38:50.871Z,29.13
2023-08-08T22:41:22.261Z,29.11
2023-08-08T22:43:52.742Z,29.11
2023-08-08T22:46:24.982Z,29.11
2023-08-08T22:48:55.524Z,29.11
2023-08-08T22:51:26.067Z,29.09
2023-08-08T22:53:58.229Z,29.07
2023-08-08T22:56:28.678Z,29.06
2023-08-08T22:58:59.144Z,29.05
2023-08-08T23:01:29.604Z,29.04
2023-08-08T23:04:00.104Z,29.02
2023-08-08T23:06:30.574Z,29.02
2023-08-08T23:09:02.735Z,29.03
2023-08-08T23:11:33.218Z,29.01
2023-08-08T23:14:03.722Z,29.01
2023-08-08T23:16:34.538Z,29.00
2023-08-08T23:19:05.385Z,28.99
2023-08-08T23:21:35.906Z,29.01
2023-08-08T23:24:09.751Z,29.00
2023-08-08T23:26:40.375Z,29.00
2023-08-08T23:29:10.850Z,29.02
2023-08-08T23:31:41.335Z,29.03
2023-08-08T23:34:11.887Z,29.05
2023-08-08T23:36:42.695Z,29.06
2023-08-08T23:39:15.745Z,29.09
2023-08-08T23:41:46.916Z,29.08
2023-08-08T23:44:17.589Z,29.08
2023-08-08T23:46:48.135Z,29.10
2023-08-08T23:49:20.041Z,29.13
2023-08-08T23:51:50.609Z,29.15
2023-08-08T23:54:22.908Z,29.17
2023-08-08T23:56:54.254Z,29.16
2023-08-08T23:59:24.939Z,29.19
